Jordan, MN

6:58 AM CST on December 27, 2014 (GMT -0600)
Glencoe Municipal | Change Station
CLOSE
Current Station
Airport
Location: Glencoe,
Elevation: 991 ft
Nearby Weather Stations
Active Advisory: Winter Weather Advisory

Elev 991 ft 44.76 °N, 94.09 °W | Updated 3 minutes ago

Snow
Snow
23 °F
Feels Like 13 °F
N
9
Wind Variable Wind from NW

Today
High -- | Low -- °F
--% Chance of Precip.
Yesterday
High -- | Low -- °F
Precip. -- in
7:50 AM 4:40 PM
Waxing Crescent, 36% visible
Pressure 30.06 in
Visibility 4.0 miles
Clouds Scattered Clouds 1700 ft
Overcast 2600 ft
Windchill 13 °F
Dew Point 21 °F
Humidity 93%
Rainfall 0.00 in
Snow Depth Not available.
UV 0 out of 12
Pollen .10 out of 12
Air Quality Not available.
Flu Activity Not available.
METAR KGYL 271255Z AUTO 32008KT 4SM -SN SCT017 OVC026 M05/M06 A3006 RMK AO2 T10521061

More Conditions Fewer Conditions

Pressure 30.06 in
Visibility 4.0 miles
Clouds Scattered Clouds 1700 ft
Overcast 2600 ft
Windchill 13 °F
Dew Point 21 °F
Humidity 93%
Rainfall 0.00 in
Snow Depth Not available.
UV 0 out of 12
Pollen .10 out of 12
Air Quality Not available.
Flu Activity Not available.
METAR KGYL 271255Z AUTO 32008KT 4SM -SN SCT017 OVC026 M05/M06 A3006 RMK AO2 T10521061

More Conditions Fewer Conditions

10-Day Weather Forecast

Almanac

Astronomy

Dec. 27, 2014 Rise Set
Actual Time
Civil Twilight
Nautical Twilight
Astronomical Twilight
Moon
Length of Visible Light
Length of Day
Tomorrow will be .
, % of the Moon is Illuminated

Today's Extremes

State Highs State Lows

Community

WunderPhotos

Upload Photos

1,780,886 photos uploaded!

WunderBlogs® & News

Nearby

Air Quality

  Air Quality AQ Index Pollutant
Not available.

Snow Depth

Station Depth Elevation

Earthquake Activity

City Distance Mag. Time & Date
Minimum magnitude displayed is 2.5.

Coastal Water Temperatures

Place Temperature

Nearby Weather Stations